createdAt,value
2022-12-14T00:05:02.872Z,-4.82
2022-12-14T00:10:06.434Z,-4.80
2022-12-14T00:15:11.435Z,-4.77
2022-12-14T00:20:14.245Z,-4.78
2022-12-14T00:25:17.154Z,-4.77
2022-12-14T00:30:21.921Z,-4.77
2022-12-14T00:35:24.973Z,-4.75
2022-12-14T00:40:27.937Z,-4.66
2022-12-14T00:45:32.185Z,-4.68
2022-12-14T00:50:35.003Z,-4.69
2022-12-14T00:55:41.940Z,-4.66
2022-12-14T01:00:46.326Z,-4.67
2022-12-14T01:05:49.583Z,-4.64
2022-12-14T01:10:52.531Z,-4.61
2022-12-14T01:15:56.772Z,-4.59
2022-12-14T01:21:11.412Z,-4.59
2022-12-14T01:26:15.084Z,-4.56
2022-12-14T01:31:22.018Z,-4.53
2022-12-14T01:36:27.683Z,-4.55
2022-12-14T01:41:32.092Z,-4.56
2022-12-14T01:46:40.208Z,-4.51
2022-12-14T01:51:49.776Z,-4.51
2022-12-14T01:56:55.128Z,-4.53
2022-12-14T02:02:03.593Z,-4.52
2022-12-14T02:07:06.773Z,-4.52
2022-12-14T02:12:14.969Z,-4.52
2022-12-14T02:17:21.566Z,-4.55
2022-12-14T02:23:07.507Z,-4.61
2022-12-14T02:28:35.222Z,-4.82
2022-12-14T02:33:49.801Z,-4.75
2022-12-14T02:39:01.783Z,-4.69
2022-12-14T02:44:11.024Z,-4.71
2022-12-14T02:49:27.027Z,-4.73
2022-12-14T02:54:37.710Z,-4.71
2022-12-14T02:59:41.522Z,-4.72
2022-12-14T03:04:48.403Z,-4.72
2022-12-14T03:09:51.339Z,-4.80
2022-12-14T03:14:57.136Z,-4.84
2022-12-14T03:20:06.804Z,-4.88
2022-12-14T03:25:15.456Z,-4.94
2022-12-14T03:30:43.948Z,-4.99
2022-12-14T03:35:50.812Z,-5.06
2022-12-14T03:40:59.830Z,-5.10
2022-12-14T03:46:10.895Z,-5.09
2022-12-14T03:51:24.066Z,-5.09
2022-12-14T03:56:38.403Z,-5.17
2022-12-14T04:01:46.998Z,-5.20
2022-12-14T04:06:59.926Z,-5.14
2022-12-14T04:12:25.202Z,-5.16
2022-12-14T04:17:51.454Z,-5.12
2022-12-14T04:22:58.635Z,-5.15
2022-12-14T04:28:05.176Z,-5.16
2022-12-14T04:33:24.695Z,-5.15
2022-12-14T04:38:35.785Z,-5.19
2022-12-14T04:43:43.646Z,-5.29
2022-12-14T04:48:52.089Z,-5.10
2022-12-14T04:54:00.741Z,-5.09
2022-12-14T04:59:04.428Z,-5.13
2022-12-14T05:04:19.869Z,-5.18
2022-12-14T05:09:28.241Z,-5.30
2022-12-14T05:14:38.345Z,-5.37
2022-12-14T05:19:48.636Z,-5.36
2022-12-14T05:24:53.148Z,-5.34
2022-12-14T05:29:55.998Z,-5.32
2022-12-14T05:34:58.839Z,-5.29
2022-12-14T05:40:03.014Z,-5.33
2022-12-14T05:45:06.454Z,-5.48
2022-12-14T05:50:10.158Z,-5.41
2022-12-14T05:55:14.547Z,-5.45
2022-12-14T06:00:17.734Z,-5.52
2022-12-14T06:05:20.567Z,-5.67
2022-12-14T06:10:24.862Z,-5.77
2022-12-14T06:15:33.659Z,-5.89
2022-12-14T06:20:36.831Z,-5.89
2022-12-14T06:25:41.083Z,-5.92
2022-12-14T06:30:43.985Z,-5.91
2022-12-14T06:35:47.818Z,-5.91
2022-12-14T06:40:52.001Z,-5.87
2022-12-14T06:45:54.969Z,-5.88
2022-12-14T06:51:01.370Z,-6.06
2022-12-14T06:56:10.688Z,-5.98
2022-12-14T07:01:15.565Z,-5.95
2022-12-14T07:06:18.584Z,-5.92
2022-12-14T07:11:22.910Z,-5.99
2022-12-14T07:16:27.114Z,-6.04
2022-12-14T07:21:30.404Z,-6.05
2022-12-14T07:26:34.591Z,-6.07
2022-12-14T07:31:37.460Z,-6.06
2022-12-14T07:36:40.551Z,-5.17
2022-12-14T07:41:45.962Z,-4.09
2022-12-14T07:46:54.999Z,-3.55
2022-12-14T07:51:57.846Z,-3.65
2022-12-14T07:57:02.029Z,-3.98
2022-12-14T08:02:05.023Z,-4.62
2022-12-14T08:07:08.095Z,-4.77
2022-12-14T08:12:12.359Z,-4.95
2022-12-14T08:17:15.388Z,-4.91
2022-12-14T08:22:18.186Z,-4.99
2022-12-14T08:27:22.352Z,-5.07
2022-12-14T08:32:29.569Z,-5.25
2022-12-14T08:37:35.354Z,-5.08
2022-12-14T08:42:39.674Z,-4.99
2022-12-14T08:47:42.503Z,-4.80
2022-12-14T08:52:48.307Z,-4.63
2022-12-14T08:57:52.585Z,-4.49
2022-12-14T09:02:55.479Z,-4.35
2022-12-14T09:07:58.882Z,-4.34
2022-12-14T09:13:03.255Z,-4.44
2022-12-14T09:18:06.372Z,-4.35
2022-12-14T09:23:09.403Z,-4.28
2022-12-14T09:28:13.648Z,-4.19
2022-12-14T09:33:16.491Z,-4.13
2022-12-14T09:38:20.091Z,-4.08
2022-12-14T09:43:39.098Z,-4.13
2022-12-14T09:48:43.643Z,-4.19
2022-12-14T09:53:51.370Z,-4.15
2022-12-14T09:58:57.339Z,-4.15
2022-12-14T10:04:11.875Z,-4.16
2022-12-14T10:09:21.994Z,-4.03
2022-12-14T10:14:37.241Z,-2.92
2022-12-14T10:19:52.491Z,-1.99
2022-12-14T10:25:05.951Z,-1.41
2022-12-14T10:30:17.983Z,-0.80
2022-12-14T10:35:27.689Z,0.03
2022-12-14T10:40:34.387Z,0.75
2022-12-14T10:45:45.284Z,1.28
2022-12-14T10:50:56.843Z,2.05
2022-12-14T10:56:03.109Z,2.56
2022-12-14T11:01:13.057Z,2.93
2022-12-14T11:06:20.130Z,3.09
2022-12-14T11:11:25.787Z,3.34
2022-12-14T11:16:37.756Z,3.43
2022-12-14T11:21:40.754Z,3.20
2022-12-14T11:26:44.701Z,3.45
2022-12-14T11:31:52.504Z,3.26
2022-12-14T11:36:55.390Z,4.36
2022-12-14T11:42:02.897Z,4.31
2022-12-14T11:47:13.601Z,4.57
2022-12-14T11:52:19.877Z,3.43
2022-12-14T11:57:31.879Z,3.59
2022-12-14T12:02:38.656Z,3.83
2022-12-14T12:07:45.954Z,4.12
2022-12-14T12:12:54.038Z,4.36
2022-12-14T12:18:02.881Z,4.48
2022-12-14T12:23:12.804Z,4.14
2022-12-14T12:28:21.244Z,3.60
2022-12-14T12:33:32.312Z,3.40
2022-12-14T12:38:50.162Z,3.18
2022-12-14T12:43:56.844Z,3.26
2022-12-14T12:49:05.997Z,3.48
2022-12-14T12:54:13.830Z,3.67
2022-12-14T12:59:20.858Z,3.47
2022-12-14T13:04:33.923Z,3.34
2022-12-14T13:09:42.403Z,3.65
2022-12-14T13:14:50.057Z,3.69
2022-12-14T13:19:57.577Z,3.89
2022-12-14T13:25:06.497Z,3.56
2022-12-14T13:30:23.617Z,3.34
2022-12-14T13:35:51.370Z,3.02
2022-12-14T13:41:09.095Z,2.80
2022-12-14T13:46:21.406Z,2.88
2022-12-14T13:51:30.233Z,2.84
2022-12-14T13:56:37.874Z,2.48
2022-12-14T14:01:57.678Z,2.19
2022-12-14T14:07:42.132Z,2.14
2022-12-14T14:12:46.720Z,2.00
2022-12-14T14:17:52.783Z,1.86
2022-12-14T14:23:33.771Z,1.89
2022-12-14T14:28:38.919Z,1.59
2022-12-14T14:33:47.856Z,1.31
2022-12-14T14:38:52.165Z,0.95
2022-12-14T14:44:01.171Z,0.61
2022-12-14T14:49:05.177Z,-0.04
2022-12-14T14:55:07.056Z,-0.60
2022-12-14T15:00:02.417Z,-0.87
2022-12-14T15:05:40.227Z,-1.12
2022-12-14T15:10:35.465Z,-1.28
2022-12-14T15:15:43.586Z,-1.40
2022-12-14T15:20:56.646Z,-1.66
2022-12-14T15:26:02.121Z,-1.88
2022-12-14T15:31:06.741Z,-2.14
2022-12-14T15:36:15.600Z,-2.17
2022-12-14T15:41:19.147Z,-2.22
2022-12-14T15:46:28.444Z,-2.31
2022-12-14T15:51:33.928Z,-2.34
2022-12-14T15:56:39.687Z,-2.36
2022-12-14T16:01:53.518Z,-2.36
2022-12-14T16:07:08.639Z,-2.46
2022-12-14T16:12:20.848Z,-2.54
2022-12-14T16:17:30.924Z,-2.58
2022-12-14T16:22:34.416Z,-2.64
2022-12-14T16:27:40.069Z,-2.71
2022-12-14T16:32:44.651Z,-2.73
2022-12-14T16:37:55.645Z,-2.79
2022-12-14T16:43:02.958Z,-2.89
2022-12-14T16:48:15.361Z,-2.83
2022-12-14T16:53:57.982Z,-2.89
2022-12-14T16:59:11.689Z,-2.97
2022-12-14T17:04:23.518Z,-3.15
2022-12-14T17:09:28.528Z,-3.33
2022-12-14T17:14:31.938Z,-3.35
2022-12-14T17:19:39.364Z,-3.49
2022-12-14T17:24:42.766Z,-3.64
2022-12-14T17:29:45.804Z,-3.75
2022-12-14T17:34:50.106Z,-3.74
2022-12-14T17:39:53.332Z,-3.70
2022-12-14T17:44:57.965Z,-3.67
2022-12-14T17:50:02.227Z,-3.60
2022-12-14T17:55:05.868Z,-3.80
2022-12-14T18:00:29.089Z,-4.08
2022-12-14T18:05:33.719Z,-4.01
2022-12-14T18:10:37.260Z,-3.84
2022-12-14T18:15:42.375Z,-3.79
2022-12-14T18:20:50.711Z,-3.69
2022-12-14T18:25:55.975Z,-3.67
2022-12-14T18:31:03.728Z,-3.71
2022-12-14T18:36:13.427Z,-3.84
2022-12-14T18:41:18.478Z,-3.97
2022-12-14T18:46:21.685Z,-4.04
2022-12-14T18:51:27.020Z,-4.07
2022-12-14T18:56:30.493Z,-4.11
2022-12-14T19:01:33.632Z,-4.12
2022-12-14T19:06:44.678Z,-4.15
2022-12-14T19:11:48.347Z,-4.18
2022-12-14T19:16:51.257Z,-4.25
2022-12-14T19:21:55.580Z,-4.44
2022-12-14T19:26:58.663Z,-4.43
2022-12-14T19:32:05.245Z,-4.45
2022-12-14T19:37:09.904Z,-4.59
2022-12-14T19:42:13.937Z,-4.52
2022-12-14T19:47:16.807Z,-4.64
2022-12-14T19:52:21.227Z,-4.49
2022-12-14T19:57:24.314Z,-4.54
2022-12-14T20:02:28.037Z,-4.60
2022-12-14T20:07:32.329Z,-4.65
2022-12-14T20:12:35.356Z,-4.64
2022-12-14T20:17:42.096Z,-4.68
2022-12-14T20:23:03.107Z,-4.69
2022-12-14T20:28:12.065Z,-4.64
2022-12-14T20:33:15.268Z,-4.67
2022-12-14T20:38:22.496Z,-4.65
2022-12-14T20:43:25.557Z,-4.69
2022-12-14T20:48:28.558Z,-4.71
2022-12-14T20:53:33.306Z,-4.69
2022-12-14T20:58:36.694Z,-4.63
2022-12-14T21:03:39.873Z,-4.67
2022-12-14T21:09:05.077Z,-4.67
2022-12-14T21:14:08.194Z,-4.76
2022-12-14T21:19:45.645Z,-4.81
2022-12-14T21:25:03.089Z,-5.11
2022-12-14T21:30:14.288Z,-5.09
2022-12-14T21:35:18.505Z,-5.02
2022-12-14T21:40:40.349Z,-4.99
2022-12-14T21:45:45.727Z,-4.97
2022-12-14T21:50:49.307Z,-4.97
2022-12-14T21:56:13.919Z,-4.99
2022-12-14T22:01:17.198Z,-4.94
2022-12-14T22:06:20.179Z,-4.99
2022-12-14T22:11:24.525Z,-5.15
2022-12-14T22:16:27.430Z,-5.23
2022-12-14T22:21:30.496Z,-5.37
2022-12-14T22:26:35.125Z,-5.45
2022-12-14T22:31:38.525Z,-5.43
2022-12-14T22:36:41.433Z,-5.35
2022-12-14T22:41:45.989Z,-5.26
2022-12-14T22:46:49.917Z,-5.34
2022-12-14T22:51:52.848Z,-5.53
2022-12-14T22:57:01.127Z,-5.44
2022-12-14T23:02:04.409Z,-5.49
2022-12-14T23:07:07.666Z,-5.47
2022-12-14T23:12:29.424Z,-5.49
2022-12-14T23:17:49.785Z,-5.66
2022-12-14T23:23:09.992Z,-5.73
2022-12-14T23:28:31.840Z,-6.00
2022-12-14T23:33:52.753Z,-5.85
2022-12-14T23:39:13.278Z,-5.95
2022-12-14T23:44:34.966Z,-5.79
2022-12-14T23:49:55.549Z,-5.77
2022-12-14T23:55:16.072Z,-5.82
